createdAt,value
2022-12-18T00:01:19.431Z,101934.91
2022-12-18T00:03:21.454Z,101929.75
2022-12-18T00:05:23.628Z,101937.88
2022-12-18T00:07:28.692Z,101936.03
2022-12-18T00:09:31.340Z,101933.25
2022-12-18T00:11:41.996Z,101928.19
2022-12-18T00:13:44.515Z,101943.50
2022-12-18T00:15:46.360Z,101926.53
2022-12-18T00:17:52.040Z,101923.06
2022-12-18T00:19:53.734Z,101920.50
2022-12-18T00:21:55.550Z,101923.13
2022-12-18T00:24:00.246Z,101926.69
2022-12-18T00:26:03.051Z,101935.97
2022-12-18T00:28:05.291Z,101929.81
2022-12-18T00:30:08.010Z,101929.53
2022-12-18T00:32:09.745Z,101925.78
2022-12-18T00:34:14.256Z,101935.06
2022-12-18T00:36:20.084Z,101937.03
2022-12-18T00:38:21.687Z,101944.41
2022-12-18T00:40:23.570Z,101950.25
2022-12-18T00:42:25.559Z,101940.78
2022-12-18T00:44:27.690Z,101937.38
2022-12-18T00:46:29.549Z,101943.34
2022-12-18T00:48:31.449Z,101936.28
2022-12-18T00:50:34.662Z,101942.53
2022-12-18T00:52:36.445Z,101952.47
2022-12-18T00:54:38.241Z,101954.97
2022-12-18T00:56:48.165Z,101957.28
2022-12-18T00:58:50.900Z,101955.19
2022-12-18T01:00:54.049Z,101949.06
2022-12-18T01:02:55.931Z,101950.03
2022-12-18T01:04:57.944Z,101954.34
2022-12-18T01:07:01.360Z,101948.94
2022-12-18T01:09:03.648Z,101947.00
2022-12-18T01:11:09.435Z,101945.66
2022-12-18T01:13:11.308Z,101942.25
2022-12-18T01:15:15.362Z,101941.97
2022-12-18T01:17:17.058Z,101933.06
2022-12-18T01:19:19.090Z,101928.94
2022-12-18T01:21:21.114Z,101939.78
2022-12-18T01:23:24.657Z,101930.00
2022-12-18T01:25:26.366Z,101918.59
2022-12-18T01:27:28.140Z,101930.78
2022-12-18T01:29:31.758Z,101933.03
2022-12-18T01:31:35.155Z,101939.97
2022-12-18T01:33:37.579Z,101934.81
2022-12-18T01:35:42.113Z,101948.53
2022-12-18T01:37:43.826Z,101950.50
2022-12-18T01:39:47.132Z,101950.50
2022-12-18T01:41:49.087Z,101941.81
2022-12-18T01:43:53.613Z,101943.25
2022-12-18T01:45:55.311Z,101945.63
2022-12-18T01:48:03.981Z,101962.88
2022-12-18T01:50:09.543Z,101967.03
2022-12-18T01:52:11.618Z,101959.91
2022-12-18T01:54:13.678Z,101952.53
2022-12-18T01:56:18.902Z,101935.34
2022-12-18T01:58:24.247Z,101941.75
2022-12-18T02:00:27.195Z,101939.88
2022-12-18T02:02:30.840Z,101946.91
2022-12-18T02:04:34.775Z,101951.59
2022-12-18T02:06:42.440Z,101956.53
2022-12-18T02:08:56.579Z,101953.75
2022-12-18T02:11:07.790Z,101949.41
2022-12-18T02:13:16.263Z,101946.69
2022-12-18T02:15:24.153Z,101958.25
2022-12-18T02:17:34.801Z,101959.03
2022-12-18T02:19:48.293Z,101957.97
2022-12-18T02:21:58.754Z,101961.06
2022-12-18T02:24:15.326Z,101963.16
2022-12-18T02:26:27.267Z,101960.78
2022-12-18T02:28:34.516Z,101960.50
2022-12-18T02:30:38.743Z,101962.50
2022-12-18T02:32:44.346Z,101950.81
2022-12-18T02:34:48.591Z,101948.38
2022-12-18T02:36:52.866Z,101953.84
2022-12-18T02:38:58.697Z,101959.69
2022-12-18T02:41:01.471Z,101950.19
2022-12-18T02:43:11.107Z,101942.00
2022-12-18T02:45:12.897Z,101942.28
2022-12-18T02:47:18.037Z,101930.53
2022-12-18T02:49:41.111Z,101927.72
2022-12-18T02:51:51.707Z,101924.66
2022-12-18T02:54:02.302Z,101923.59
2022-12-18T02:56:09.915Z,101916.97
2022-12-18T02:58:17.506Z,101912.31
2022-12-18T03:00:22.968Z,101913.28
2022-12-18T03:02:32.347Z,101906.34
2022-12-18T03:04:43.398Z,101920.63
2022-12-18T03:06:49.588Z,101918.88
2022-12-18T03:08:59.198Z,101919.94
2022-12-18T03:11:05.453Z,101935.00
2022-12-18T03:13:11.627Z,101931.91
2022-12-18T03:15:19.726Z,101943.34
2022-12-18T03:17:25.684Z,101943.72
2022-12-18T03:19:30.862Z,101952.53
2022-12-18T03:21:38.104Z,101950.88
2022-12-18T03:23:45.650Z,101945.25
2022-12-18T03:25:48.905Z,101942.78
2022-12-18T03:27:55.850Z,101948.56
2022-12-18T03:30:03.868Z,101944.63
2022-12-18T03:32:11.783Z,101927.56
2022-12-18T03:34:18.771Z,101920.28
2022-12-18T03:36:20.823Z,101913.13
2022-12-18T03:38:22.884Z,101933.84
2022-12-18T03:40:32.711Z,101948.84
2022-12-18T03:42:42.978Z,101950.13
2022-12-18T03:44:53.903Z,101947.69
2022-12-18T03:47:02.835Z,101934.72
2022-12-18T03:49:12.777Z,101933.88
2022-12-18T03:51:20.277Z,101932.06
2022-12-18T03:53:32.376Z,101927.28
2022-12-18T03:55:35.917Z,101929.16
2022-12-18T03:57:39.137Z,101936.94
2022-12-18T03:59:42.471Z,101929.16
2022-12-18T04:01:49.200Z,101932.84
2022-12-18T04:03:52.365Z,101939.94
2022-12-18T04:05:56.746Z,101943.56
2022-12-18T04:07:59.007Z,101937.28
2022-12-18T04:10:02.395Z,101931.53
2022-12-18T04:12:04.836Z,101942.47
2022-12-18T04:14:07.458Z,101927.44
2022-12-18T04:16:09.818Z,101930.59
2022-12-18T04:18:11.811Z,101930.97
2022-12-18T04:20:13.702Z,101933.63
2022-12-18T04:22:17.222Z,101929.47
2022-12-18T04:24:18.873Z,101945.81
2022-12-18T04:26:20.777Z,101939.69
2022-12-18T04:28:22.863Z,101936.53
2022-12-18T04:30:24.672Z,101922.38
2022-12-18T04:32:26.862Z,101920.91
2022-12-18T04:34:28.811Z,101922.47
2022-12-18T04:36:30.515Z,101917.34
2022-12-18T04:38:33.743Z,101925.25
2022-12-18T04:40:39.146Z,101924.88
2022-12-18T04:42:41.627Z,101917.88
2022-12-18T04:44:43.407Z,101917.47
2022-12-18T04:46:45.178Z,101914.19
2022-12-18T04:48:47.712Z,101919.69
2022-12-18T04:50:49.551Z,101916.50
2022-12-18T04:52:51.429Z,101926.47
2022-12-18T04:54:54.604Z,101933.31
2022-12-18T04:56:56.428Z,101934.75
2022-12-18T04:58:58.298Z,101933.69
2022-12-18T05:01:00.282Z,101926.53
2022-12-18T05:03:02.414Z,101923.25
2022-12-18T05:05:04.948Z,101925.69
2022-12-18T05:07:07.258Z,101921.53
2022-12-18T05:09:09.586Z,101934.81
2022-12-18T05:11:15.293Z,101940.28
2022-12-18T05:13:17.125Z,101941.28
2022-12-18T05:15:18.884Z,101949.03
2022-12-18T05:17:20.742Z,101944.97
2022-12-18T05:19:22.521Z,101950.44
2022-12-18T05:21:25.511Z,101944.88
2022-12-18T05:23:29.079Z,101958.25
2022-12-18T05:25:30.724Z,101956.75
2022-12-18T05:27:34.426Z,101958.72
2022-12-18T05:29:36.090Z,101951.78
2022-12-18T05:31:39.802Z,101957.38
2022-12-18T05:33:42.053Z,101961.53
2022-12-18T05:35:44.411Z,101958.50
2022-12-18T05:37:46.497Z,101955.81
2022-12-18T05:39:48.249Z,101958.50
2022-12-18T05:41:49.994Z,101954.53
2022-12-18T05:43:53.179Z,101950.28
2022-12-18T05:45:55.341Z,101956.53
2022-12-18T05:47:58.188Z,101960.03
2022-12-18T05:49:59.957Z,101941.63
2022-12-18T05:52:02.044Z,101943.94
2022-12-18T05:54:04.080Z,101938.25
2022-12-18T05:56:10.049Z,101933.66
2022-12-18T05:58:13.987Z,101942.88
2022-12-18T06:00:19.910Z,101931.72
2022-12-18T06:02:21.596Z,101937.97
2022-12-18T06:04:23.418Z,101938.56
2022-12-18T06:06:27.222Z,101939.06
2022-12-18T06:08:29.299Z,101941.72
2022-12-18T06:10:31.414Z,101949.63
2022-12-18T06:12:33.152Z,101943.03
2022-12-18T06:14:34.970Z,101950.09
2022-12-18T06:16:38.372Z,101941.66
2022-12-18T06:18:43.300Z,101950.47
2022-12-18T06:20:45.003Z,101955.59
2022-12-18T06:22:47.209Z,101953.94
2022-12-18T06:24:49.139Z,101954.47
2022-12-18T06:26:50.867Z,101964.50
2022-12-18T06:28:53.423Z,101964.50
2022-12-18T06:30:55.609Z,101972.75
2022-12-18T06:32:58.723Z,101968.69
2022-12-18T06:35:00.831Z,101975.53
2022-12-18T06:37:02.533Z,101976.66
2022-12-18T06:39:04.541Z,101983.38
2022-12-18T06:41:08.188Z,101980.28
2022-12-18T06:43:09.896Z,101984.41
2022-12-18T06:45:11.927Z,101982.34
2022-12-18T06:47:16.315Z,101981.72
2022-12-18T06:49:30.170Z,101972.53
2022-12-18T06:51:32.292Z,101991.69
2022-12-18T06:53:34.679Z,101992.25
2022-12-18T06:55:36.464Z,101998.16
2022-12-18T06:57:38.964Z,102005.66
2022-12-18T06:59:40.782Z,102014.25
2022-12-18T07:01:42.732Z,102011.28
2022-12-18T07:03:45.252Z,102011.00
2022-12-18T07:05:48.756Z,102011.13
2022-12-18T07:07:50.442Z,102019.41
2022-12-18T07:09:52.218Z,102011.38
2022-12-18T07:11:54.071Z,102014.72
2022-12-18T07:13:56.028Z,102018.81
2022-12-18T07:16:07.662Z,102030.09
2022-12-18T07:18:13.101Z,102027.63
2022-12-18T07:20:15.423Z,102028.19
2022-12-18T07:22:18.520Z,102027.19
2022-12-18T07:24:20.279Z,102021.94
2022-12-18T07:26:24.841Z,102022.69
2022-12-18T07:28:26.692Z,102030.84
2022-12-18T07:30:28.411Z,102029.31
2022-12-18T07:32:31.361Z,102034.97
2022-12-18T07:34:33.056Z,102040.56
2022-12-18T07:36:37.942Z,102032.09
2022-12-18T07:38:41.189Z,102023.06
2022-12-18T07:40:44.213Z,102029.16
2022-12-18T07:42:45.913Z,102026.56
2022-12-18T07:44:47.658Z,102021.56
2022-12-18T07:46:49.327Z,102020.88
2022-12-18T07:48:51.135Z,102015.75
2022-12-18T07:50:53.893Z,102013.13
2022-12-18T07:52:55.673Z,102014.09
2022-12-18T07:54:59.037Z,102015.06
2022-12-18T07:57:01.248Z,102017.41
2022-12-18T07:59:05.823Z,102014.94
2022-12-18T08:01:09.631Z,102016.03
2022-12-18T08:03:16.209Z,102014.56
2022-12-18T08:05:20.566Z,102028.38
2022-12-18T08:07:25.228Z,102016.25
2022-12-18T08:09:27.299Z,102012.59
2022-12-18T08:11:35.045Z,102010.94
2022-12-18T08:13:38.660Z,102017.06
2022-12-18T08:15:40.629Z,102015.06
2022-12-18T08:17:42.607Z,102013.38
2022-12-18T08:19:44.590Z,102019.63
2022-12-18T08:21:46.360Z,102022.44
2022-12-18T08:23:49.265Z,102024.19
2022-12-18T08:25:52.951Z,102021.88
2022-12-18T08:27:56.293Z,102029.16
2022-12-18T08:29:58.218Z,102018.69
2022-12-18T08:32:00.089Z,102025.75
2022-12-18T08:34:01.923Z,102033.44
2022-12-18T08:36:05.333Z,102025.06
2022-12-18T08:38:07.130Z,102034.88
2022-12-18T08:40:13.608Z,102022.72
2022-12-18T08:42:15.869Z,102031.09
2022-12-18T08:44:19.589Z,102018.34
2022-12-18T08:46:23.354Z,102004.22
2022-12-18T08:48:28.259Z,102002.44
2022-12-18T08:50:30.179Z,101999.09
2022-12-18T08:52:33.169Z,102001.44
2022-12-18T08:54:34.922Z,102002.00
2022-12-18T08:56:36.761Z,102013.00
2022-12-18T08:58:38.625Z,102007.91
2022-12-18T09:00:42.013Z,101994.84
2022-12-18T09:02:49.767Z,101989.53
2022-12-18T09:04:57.099Z,101988.84
2022-12-18T09:06:59.402Z,101982.75
2022-12-18T09:09:05.263Z,101985.63
2022-12-18T09:11:13.829Z,101970.91
2022-12-18T09:13:17.004Z,101971.13
2022-12-18T09:15:18.920Z,101967.66
2022-12-18T09:17:22.418Z,101971.03
2022-12-18T09:19:24.506Z,101963.84
2022-12-18T09:21:28.766Z,101969.94
2022-12-18T09:23:33.659Z,101968.44
2022-12-18T09:25:38.219Z,101976.81
2022-12-18T09:27:40.001Z,101977.56
2022-12-18T09:29:41.697Z,101979.56
2022-12-18T09:31:43.483Z,101977.16
2022-12-18T09:33:46.750Z,101980.53
2022-12-18T09:35:48.761Z,101981.94
2022-12-18T09:37:50.828Z,101984.78
2022-12-18T09:39:52.722Z,101979.03
2022-12-18T09:41:56.965Z,101988.63
2022-12-18T09:44:02.457Z,101994.41
2022-12-18T09:46:07.768Z,101988.16
2022-12-18T09:48:15.380Z,102004.03
2022-12-18T09:50:25.778Z,102004.59
2022-12-18T09:52:33.545Z,102013.69
2022-12-18T09:54:39.824Z,102016.00
2022-12-18T09:56:43.777Z,102017.53
2022-12-18T09:58:51.227Z,102026.97
2022-12-18T10:00:52.844Z,102032.28
2022-12-18T10:03:00.966Z,102030.16
2022-12-18T10:05:12.564Z,102028.34
2022-12-18T10:07:22.562Z,102019.63
2022-12-18T10:09:34.966Z,102022.28
2022-12-18T10:11:48.751Z,102021.63
2022-12-18T10:13:55.319Z,102015.84
2022-12-18T10:16:14.049Z,102012.53
2022-12-18T10:18:26.415Z,102013.72
2022-12-18T10:20:34.050Z,102012.44
2022-12-18T10:22:44.963Z,102013.44
2022-12-18T10:24:53.630Z,102013.28
2022-12-18T10:27:05.715Z,102024.72
2022-12-18T10:29:12.003Z,102024.75
2022-12-18T10:31:17.226Z,102021.44
2022-12-18T10:33:20.886Z,102010.56
2022-12-18T10:35:24.981Z,102007.41
2022-12-18T10:37:29.077Z,102012.25
2022-12-18T10:39:32.041Z,102010.09
2022-12-18T10:41:33.641Z,101998.34
2022-12-18T10:43:37.056Z,101996.88
2022-12-18T10:45:38.759Z,101985.94
2022-12-18T10:47:44.289Z,101980.34
2022-12-18T10:49:50.726Z,101981.81
2022-12-18T10:52:04.641Z,101983.97
2022-12-18T10:54:16.928Z,101973.88
2022-12-18T10:56:21.592Z,101986.09
2022-12-18T10:58:27.149Z,101984.59
2022-12-18T11:00:30.935Z,101986.56
2022-12-18T11:02:37.958Z,101981.56
2022-12-18T11:04:52.628Z,101989.16
2022-12-18T11:06:59.492Z,101992.97
2022-12-18T11:09:05.341Z,101985.47
2022-12-18T11:11:19.932Z,101980.84
2022-12-18T11:13:24.706Z,101979.44
2022-12-18T11:15:30.646Z,101980.75
2022-12-18T11:17:34.168Z,101979.94
2022-12-18T11:19:37.269Z,101984.22
2022-12-18T11:21:40.888Z,101984.34
2022-12-18T11:23:49.611Z,101986.00
2022-12-18T11:26:04.596Z,101976.31
2022-12-18T11:28:26.662Z,101982.72
2022-12-18T11:30:32.223Z,101985.69
2022-12-18T11:32:37.218Z,101980.66
2022-12-18T11:34:39.336Z,101979.31
2022-12-18T11:36:43.806Z,101975.13
2022-12-18T11:38:48.443Z,101981.75
2022-12-18T11:40:56.057Z,101989.34
2022-12-18T11:43:07.709Z,101976.06
2022-12-18T11:45:25.574Z,101983.34
2022-12-18T11:47:38.108Z,101980.69
2022-12-18T11:49:42.241Z,101968.72
2022-12-18T11:51:49.667Z,101973.28
2022-12-18T11:53:52.777Z,101971.53
2022-12-18T11:56:20.949Z,101955.53
2022-12-18T11:58:35.730Z,101943.44
2022-12-18T12:00:43.782Z,101947.91
2022-12-18T12:03:23.561Z,101949.22
2022-12-18T12:05:46.047Z,101958.31
2022-12-18T12:07:57.633Z,101964.16
2022-12-18T12:10:13.058Z,101965.09
2022-12-18T12:12:31.539Z,101968.88
2022-12-18T12:14:48.250Z,101956.06
2022-12-18T12:16:56.411Z,101953.41
2022-12-18T12:19:14.594Z,101959.72
2022-12-18T12:21:22.293Z,101955.44
2022-12-18T12:23:32.883Z,101961.75
2022-12-18T12:25:40.452Z,101963.75
2022-12-18T12:27:54.014Z,101954.72
2022-12-18T12:30:04.134Z,101951.75
2022-12-18T12:32:17.615Z,101953.53
2022-12-18T12:34:26.863Z,101954.19
2022-12-18T12:36:39.579Z,101962.03
2022-12-18T12:38:49.812Z,101958.59
2022-12-18T12:41:03.124Z,101949.25
2022-12-18T12:43:17.393Z,101921.53
2022-12-18T12:45:24.175Z,101942.75
2022-12-18T12:47:31.247Z,101948.69
2022-12-18T12:49:40.284Z,101946.53
2022-12-18T12:51:47.068Z,101935.94
2022-12-18T12:53:50.334Z,101935.41
2022-12-18T12:55:53.628Z,101921.81
2022-12-18T12:58:03.568Z,101916.44
2022-12-18T13:00:10.683Z,101917.94
2022-12-18T13:02:19.270Z,101915.44
2022-12-18T13:04:28.312Z,101915.28
2022-12-18T13:06:44.573Z,101911.59
2022-12-18T13:08:55.396Z,101901.78
2022-12-18T13:10:59.976Z,101909.75
2022-12-18T13:13:04.106Z,101895.81
2022-12-18T13:15:21.601Z,101894.09
2022-12-18T13:17:29.249Z,101883.91
2022-12-18T13:19:34.299Z,101878.41
2022-12-18T13:21:37.249Z,101877.66
2022-12-18T13:23:42.289Z,101869.66
2022-12-18T13:25:44.066Z,101863.84
2022-12-18T13:28:06.507Z,101865.44
2022-12-18T13:30:44.157Z,101860.91
2022-12-18T13:32:45.943Z,101864.69
2022-12-18T13:34:48.654Z,101873.13
2022-12-18T13:36:53.588Z,101873.25
2022-12-18T13:39:28.868Z,101863.09
2022-12-18T13:41:35.825Z,101862.28
2022-12-18T13:43:42.948Z,101863.88
2022-12-18T13:45:48.811Z,101857.56
2022-12-18T13:47:51.455Z,101862.53
2022-12-18T13:49:53.798Z,101862.16
2022-12-18T13:51:57.570Z,101853.38
2022-12-18T13:54:02.385Z,101858.69
2022-12-18T13:56:05.959Z,101860.81
2022-12-18T13:58:07.859Z,101862.28
2022-12-18T14:00:26.782Z,101861.72
2022-12-18T14:02:29.667Z,101860.72
2022-12-18T14:04:35.785Z,101862.38
2022-12-18T14:06:37.682Z,101864.03
2022-12-18T14:08:43.986Z,101860.72
2022-12-18T14:10:49.951Z,101864.22
2022-12-18T14:12:52.656Z,101862.38
2022-12-18T14:14:55.202Z,101854.41
2022-12-18T14:16:57.459Z,101860.38
2022-12-18T14:19:02.237Z,101857.44
2022-12-18T14:21:20.535Z,101864.47
2022-12-18T14:23:31.026Z,101859.56
2022-12-18T14:25:33.989Z,101862.03
2022-12-18T14:27:39.337Z,101861.50
2022-12-18T14:29:44.224Z,101858.59
2022-12-18T14:31:45.798Z,101861.97
2022-12-18T14:33:47.563Z,101863.84
2022-12-18T14:35:58.188Z,101857.47
2022-12-18T14:38:21.359Z,101860.28
2022-12-18T14:40:23.248Z,101878.72
2022-12-18T14:42:27.111Z,101875.06
2022-12-18T14:44:39.116Z,101873.22
2022-12-18T14:46:51.820Z,101870.09
2022-12-18T14:48:55.436Z,101867.47
2022-12-18T14:51:00.197Z,101872.56
2022-12-18T14:53:01.988Z,101881.16
2022-12-18T14:55:03.881Z,101875.69
2022-12-18T14:57:22.057Z,101865.44
2022-12-18T14:59:27.260Z,101863.28
2022-12-18T15:01:32.596Z,101861.34
2022-12-18T15:03:34.379Z,101860.19
2022-12-18T15:05:36.672Z,101851.94
2022-12-18T15:07:42.558Z,101847.50
2022-12-18T15:10:04.059Z,101845.34
2022-12-18T15:12:06.160Z,101848.28
2022-12-18T15:14:32.249Z,101843.16
2022-12-18T15:16:33.827Z,101840.34
2022-12-18T15:18:42.389Z,101845.84
2022-12-18T15:20:46.277Z,101847.97
2022-12-18T15:22:48.700Z,101853.25
2022-12-18T15:24:51.663Z,101845.97
2022-12-18T15:26:54.054Z,101836.38
2022-12-18T15:28:57.429Z,101844.00
2022-12-18T15:31:02.951Z,101841.34
2022-12-18T15:33:25.691Z,101839.03
2022-12-18T15:35:27.427Z,101837.19
2022-12-18T15:37:29.083Z,101836.72
2022-12-18T15:39:30.611Z,101828.09
2022-12-18T15:41:33.689Z,101831.03
2022-12-18T15:43:39.776Z,101834.13
2022-12-18T15:45:41.576Z,101839.56
2022-12-18T15:47:44.550Z,101832.75
2022-12-18T15:49:46.182Z,101831.25
2022-12-18T15:51:52.952Z,101829.78
2022-12-18T15:53:56.361Z,101832.09
2022-12-18T15:56:01.175Z,101828.09
2022-12-18T15:58:03.055Z,101838.34
2022-12-18T16:00:05.743Z,101836.38
2022-12-18T16:02:18.916Z,101836.66
2022-12-18T16:04:23.209Z,101832.84
2022-12-18T16:06:24.807Z,101840.09
2022-12-18T16:08:26.363Z,101837.44
2022-12-18T16:10:28.473Z,101835.47
2022-12-18T16:12:30.110Z,101835.13
2022-12-18T16:14:32.924Z,101838.44
2022-12-18T16:16:34.463Z,101837.59
2022-12-18T16:18:35.996Z,101830.28
2022-12-18T16:20:39.668Z,101830.09
2022-12-18T16:22:41.566Z,101838.44
2022-12-18T16:24:43.287Z,101828.44
2022-12-18T16:26:45.370Z,101827.13
2022-12-18T16:28:48.605Z,101830.09
2022-12-18T16:30:50.308Z,101824.13
2022-12-18T16:32:51.940Z,101814.31
2022-12-18T16:34:53.509Z,101815.63
2022-12-18T16:37:01.713Z,101813.50
2022-12-18T16:39:06.601Z,101814.56
2022-12-18T16:41:21.191Z,101814.56
2022-12-18T16:43:22.750Z,101811.41
2022-12-18T16:45:31.869Z,101816.09
2022-12-18T16:47:34.246Z,101811.28
2022-12-18T16:49:36.087Z,101803.47
2022-12-18T16:51:37.862Z,101802.00
2022-12-18T16:53:41.737Z,101795.56
2022-12-18T16:55:43.645Z,101794.88
2022-12-18T16:57:45.248Z,101789.06
2022-12-18T16:59:47.162Z,101795.94
2022-12-18T17:01:48.946Z,101786.16
2022-12-18T17:03:52.775Z,101786.47
2022-12-18T17:05:54.597Z,101791.59
2022-12-18T17:07:56.174Z,101787.09
2022-12-18T17:09:59.277Z,101786.41
2022-12-18T17:12:04.241Z,101788.53
2022-12-18T17:14:07.833Z,101784.22
2022-12-18T17:16:09.941Z,101782.69
2022-12-18T17:18:11.522Z,101787.28
2022-12-18T17:20:14.901Z,101788.13
2022-12-18T17:22:16.486Z,101779.84
2022-12-18T17:24:18.501Z,101790.31
2022-12-18T17:26:21.900Z,101794.97
2022-12-18T17:28:23.699Z,101798.75
2022-12-18T17:30:25.277Z,101805.91
2022-12-18T17:32:26.826Z,101801.06
2022-12-18T17:34:28.547Z,101803.91
2022-12-18T17:36:31.940Z,101797.75
2022-12-18T17:38:33.761Z,101794.66
2022-12-18T17:40:35.791Z,101786.69
2022-12-18T17:42:38.907Z,101783.03
2022-12-18T17:44:40.517Z,101782.22
2022-12-18T17:46:42.875Z,101783.03
2022-12-18T17:48:44.895Z,101786.00
2022-12-18T17:50:46.538Z,101781.81
2022-12-18T17:52:48.135Z,101773.50
2022-12-18T17:54:49.798Z,101773.69
2022-12-18T17:56:51.390Z,101766.72
2022-12-18T17:58:54.501Z,101765.25
2022-12-18T18:00:58.736Z,101770.09
2022-12-18T18:03:00.513Z,101773.56
2022-12-18T18:05:02.643Z,101776.69
2022-12-18T18:07:04.165Z,101777.88
2022-12-18T18:09:05.853Z,101776.53
2022-12-18T18:11:16.783Z,101774.69
2022-12-18T18:13:20.483Z,101765.53
2022-12-18T18:15:23.520Z,101765.25
2022-12-18T18:17:25.118Z,101757.47
2022-12-18T18:19:26.647Z,101758.13
2022-12-18T18:21:30.515Z,101759.84
2022-12-18T18:23:32.921Z,101762.97
2022-12-18T18:25:36.187Z,101764.25
2022-12-18T18:27:38.898Z,101756.59
2022-12-18T18:29:40.879Z,101755.91
2022-12-18T18:31:46.357Z,101753.72
2022-12-18T18:33:48.189Z,101760.81
2022-12-18T18:35:54.427Z,101771.28
2022-12-18T18:37:56.610Z,101770.09
2022-12-18T18:40:01.302Z,101774.69
2022-12-18T18:42:03.414Z,101769.56
2022-12-18T18:44:05.534Z,101772.41
2022-12-18T18:46:07.394Z,101782.47
2022-12-18T18:48:10.444Z,101775.16
2022-12-18T18:50:12.097Z,101765.91
2022-12-18T18:52:13.723Z,101761.78
2022-12-18T18:54:15.466Z,101762.97
2022-12-18T18:56:56.391Z,101761.00
2022-12-18T18:58:41.862Z,101763.72
2022-12-18T19:00:43.679Z,101757.47
2022-12-18T19:02:46.108Z,101756.84
2022-12-18T19:04:49.262Z,101751.34
2022-12-18T19:06:50.838Z,101749.56
2022-12-18T19:08:53.506Z,101748.97
2022-12-18T19:10:58.250Z,101749.03
2022-12-18T19:12:59.969Z,101748.69
2022-12-18T19:15:01.733Z,101742.69
2022-12-18T19:17:04.780Z,101734.38
2022-12-18T19:19:07.909Z,101722.72
2022-12-18T19:21:11.239Z,101717.06
2022-12-18T19:23:12.815Z,101715.88
2022-12-18T19:25:14.533Z,101715.53
2022-12-18T19:27:16.244Z,101721.59
2022-12-18T19:29:17.889Z,101715.97
2022-12-18T19:31:29.198Z,101718.34
2022-12-18T19:33:44.186Z,101714.00
2022-12-18T19:35:46.039Z,101715.13
2022-12-18T19:37:49.738Z,101710.44
2022-12-18T19:39:51.330Z,101711.09
2022-12-18T19:41:53.129Z,101706.44
2022-12-18T19:43:55.823Z,101707.28
2022-12-18T19:45:57.480Z,101708.09
2022-12-18T19:48:04.051Z,101701.59
2022-12-18T19:50:07.499Z,101694.53
2022-12-18T19:52:09.177Z,101705.13
2022-12-18T19:54:16.975Z,101713.75
2022-12-18T19:56:21.451Z,101700.56
2022-12-18T19:58:23.143Z,101712.63
2022-12-18T20:00:26.558Z,101708.81
2022-12-18T20:02:28.407Z,101696.66
2022-12-18T20:04:30.127Z,101688.09
2022-12-18T20:06:34.446Z,101701.22
2022-12-18T20:08:36.369Z,101697.44
2022-12-18T20:10:39.393Z,101685.59
2022-12-18T20:12:41.086Z,101686.41
2022-12-18T20:14:42.755Z,101687.41
2022-12-18T20:16:44.563Z,101682.06
2022-12-18T20:18:46.935Z,101691.50
2022-12-18T20:20:48.834Z,101693.25
2022-12-18T20:22:52.278Z,101688.59
2022-12-18T20:24:53.868Z,101694.06
2022-12-18T20:26:57.342Z,101694.44
2022-12-18T20:29:00.033Z,101697.72
2022-12-18T20:31:03.678Z,101699.75
2022-12-18T20:33:05.952Z,101699.38
2022-12-18T20:35:07.995Z,101683.47
2022-12-18T20:37:10.330Z,101690.19
2022-12-18T20:39:14.329Z,101703.28
2022-12-18T20:41:18.061Z,101698.78
2022-12-18T20:43:21.021Z,101701.91
2022-12-18T20:45:22.653Z,101700.75
2022-12-18T20:47:24.278Z,101701.38
2022-12-18T20:49:26.881Z,101697.91
2022-12-18T20:51:28.480Z,101700.06
2022-12-18T20:53:30.303Z,101696.75
2022-12-18T20:55:31.900Z,101688.25
2022-12-18T20:57:33.712Z,101676.66
2022-12-18T20:59:39.930Z,101671.31
2022-12-18T21:01:48.450Z,101678.06
2022-12-18T21:03:51.092Z,101674.69
2022-12-18T21:05:52.891Z,101674.75
2022-12-18T21:07:54.405Z,101684.13
2022-12-18T21:09:56.042Z,101675.69
2022-12-18T21:11:57.660Z,101680.09
2022-12-18T21:13:59.348Z,101669.75
2022-12-18T21:16:02.539Z,101680.59
2022-12-18T21:18:05.136Z,101688.31
2022-12-18T21:20:08.303Z,101693.34
2022-12-18T21:22:10.094Z,101703.41
2022-12-18T21:24:12.211Z,101701.34
2022-12-18T21:26:18.543Z,101710.69
2022-12-18T21:28:20.120Z,101717.41
2022-12-18T21:30:21.949Z,101694.03
2022-12-18T21:32:24.887Z,101697.75
2022-12-18T21:34:31.599Z,101689.88
2022-12-18T21:36:34.147Z,101703.03
2022-12-18T21:38:35.772Z,101699.44
2022-12-18T21:40:38.966Z,101700.75
2022-12-18T21:42:40.723Z,101688.91
2022-12-18T21:44:43.302Z,101687.13
2022-12-18T21:46:51.376Z,101683.19
2022-12-18T21:48:57.950Z,101679.38
2022-12-18T21:50:59.873Z,101689.38
2022-12-18T21:53:01.549Z,101687.53
2022-12-18T21:55:09.984Z,101684.88
2022-12-18T21:57:13.701Z,101686.53
2022-12-18T21:59:16.851Z,101675.69
2022-12-18T22:01:18.487Z,101685.28
2022-12-18T22:03:20.179Z,101682.88
2022-12-18T22:05:23.288Z,101693.28
2022-12-18T22:07:24.881Z,101707.09
2022-12-18T22:09:26.428Z,101707.50
2022-12-18T22:11:28.038Z,101709.66
2022-12-18T22:13:29.713Z,101708.28
2022-12-18T22:15:31.403Z,101702.63
2022-12-18T22:17:33.308Z,101701.75
2022-12-18T22:19:41.032Z,101695.25
2022-12-18T22:21:47.618Z,101704.97
2022-12-18T22:23:52.822Z,101701.97
2022-12-18T22:25:54.444Z,101690.97
2022-12-18T22:27:56.222Z,101691.44
2022-12-18T22:29:57.827Z,101685.78
2022-12-18T22:31:59.407Z,101682.31
2022-12-18T22:34:01.133Z,101687.09
2022-12-18T22:36:06.364Z,101691.56
2022-12-18T22:38:09.343Z,101694.38
2022-12-18T22:40:22.269Z,101687.84
2022-12-18T22:42:25.645Z,101695.78
2022-12-18T22:44:27.620Z,101685.78
2022-12-18T22:46:31.766Z,101700.78
2022-12-18T22:48:33.435Z,101691.13
2022-12-18T22:50:34.969Z,101695.63
2022-12-18T22:52:36.516Z,101692.63
2022-12-18T22:54:39.482Z,101703.88
2022-12-18T22:56:41.064Z,101697.22
2022-12-18T22:58:42.891Z,101685.44
2022-12-18T23:00:44.473Z,101691.84
2022-12-18T23:02:46.206Z,101684.06
2022-12-18T23:04:48.080Z,101688.84
2022-12-18T23:06:49.682Z,101685.19
2022-12-18T23:08:55.974Z,101684.53
2022-12-18T23:10:59.188Z,101691.50
2022-12-18T23:13:00.731Z,101684.34
2022-12-18T23:15:02.248Z,101681.03
2022-12-18T23:17:03.762Z,101674.72
2022-12-18T23:19:05.548Z,101669.88
2022-12-18T23:21:09.614Z,101672.81
2022-12-18T23:23:11.725Z,101674.47
2022-12-18T23:25:14.778Z,101675.94
2022-12-18T23:27:17.649Z,101665.78
2022-12-18T23:29:19.191Z,101670.44
2022-12-18T23:31:23.562Z,101664.59
2022-12-18T23:33:25.135Z,101662.31
2022-12-18T23:35:26.911Z,101660.09
2022-12-18T23:37:56.952Z,101661.97
2022-12-18T23:39:50.062Z,101659.91
2022-12-18T23:41:51.614Z,101651.44
2022-12-18T23:43:54.661Z,101650.22